SKW6006 KTUS-KLAX
Flight info
| Callsign | SKW6006 |
|---|---|
| Flight time | 1h 13m |
| Altitude | 32000 |
| Route | WLDKT4 GBN J104 WLVRN DCT ESTWD HLYWD1 |
| Aircraft | E175/M-VGDW/C |
Departure
| Time | 2026-05-04 22:47 |
|---|---|
| Airport | Tucson International Airport (KTUS) |
Arrival
| Time | 2026-05-05 00:00 |
|---|---|
| Airport | Los Angeles International Airport (KLAX) |
| Time | Latitude | Longitude | Altitude | Speed | Heading |
|---|---|---|---|---|---|
| 2026-05-04 21:53 | 32.11900 | -110.93652 | 2600 ft | 0 kts | 269° |
| 2026-05-04 22:35 | 32.11900 | -110.93638 | 2600 ft | 4 kts | 264° |
| 2026-05-04 22:35 | 32.11907 | -110.93608 | 2601 ft | 4 kts | 236° |
| 2026-05-04 22:35 | 32.11924 | -110.93591 | 2601 ft | 4 kts | 176° |
| 2026-05-04 22:35 | 32.11937 | -110.93596 | 2601 ft | 0 kts | 134° |
| 2026-05-04 22:39 | 32.11927 | -110.93585 | 2601 ft | 4 kts | 139° |
| 2026-05-04 22:39 | 32.11905 | -110.93565 | 2602 ft | 4 kts | 150° |
| 2026-05-04 22:40 | 32.11859 | -110.93560 | 2603 ft | 10 kts | 194° |
| 2026-05-04 22:40 | 32.11817 | -110.93587 | 2603 ft | 11 kts | 224° |
| 2026-05-04 22:40 | 32.11731 | -110.93680 | 2601 ft | 13 kts | 195° |
| 2026-05-04 22:40 | 32.11697 | -110.93669 | 2602 ft | 3 kts | 114° |
| 2026-05-04 22:41 | 32.11711 | -110.93658 | 2602 ft | 3 kts | 332° |
| 2026-05-04 22:41 | 32.11740 | -110.93704 | 2600 ft | 11 kts | 304° |
| 2026-05-04 22:41 | 32.11752 | -110.93799 | 2594 ft | 13 kts | 229° |
| 2026-05-04 22:41 | 32.11705 | -110.93798 | 2599 ft | 10 kts | 149° |
| 2026-05-04 22:42 | 32.11654 | -110.93745 | 2602 ft | 11 kts | 137° |
| 2026-05-04 22:42 | 32.11594 | -110.93675 | 2605 ft | 14 kts | 135° |
| 2026-05-04 22:42 | 32.11517 | -110.93584 | 2608 ft | 16 kts | 133° |
| 2026-05-04 22:42 | 32.11436 | -110.93485 | 2614 ft | 18 kts | 135° |
| 2026-05-04 22:43 | 32.11340 | -110.93376 | 2616 ft | 21 kts | 136° |
| 2026-05-04 22:43 | 32.11226 | -110.93244 | 2620 ft | 24 kts | 135° |
| 2026-05-04 22:43 | 32.11098 | -110.93092 | 2620 ft | 27 kts | 135° |
| 2026-05-04 22:43 | 32.10968 | -110.92939 | 2624 ft | 26 kts | 134° |
| 2026-05-04 22:44 | 32.10841 | -110.92791 | 2630 ft | 25 kts | 135° |
| 2026-05-04 22:44 | 32.10725 | -110.92653 | 2635 ft | 23 kts | 131° |
| 2026-05-04 22:44 | 32.10613 | -110.92522 | 2641 ft | 22 kts | 136° |
| 2026-05-04 22:44 | 32.10506 | -110.92398 | 2643 ft | 22 kts | 135° |
| 2026-05-04 22:45 | 32.10400 | -110.92269 | 2646 ft | 21 kts | 136° |
| 2026-05-04 22:45 | 32.10256 | -110.92331 | 2656 ft | 12 kts | 258° |
| 2026-05-04 22:45 | 32.10278 | -110.92383 | 2651 ft | 1 kts | 315° |
| 2026-05-04 22:46 | 32.10327 | -110.92438 | 2647 ft | 33 kts | 317° |
| 2026-05-04 22:46 | 32.10658 | -110.92831 | 2635 ft | 102 kts | 314° |
| 2026-05-04 22:46 | 32.11308 | -110.93596 | 2614 ft | 160 kts | 315° |
| 2026-05-04 22:46 | 32.12166 | -110.94582 | 3138 ft | 178 kts | 309° |
| 2026-05-04 22:47 | 32.12979 | -110.95568 | 3752 ft | 165 kts | 307° |
| 2026-05-04 22:47 | 32.13779 | -110.96588 | 4446 ft | 167 kts | 304° |
| 2026-05-04 22:47 | 32.14574 | -110.97571 | 5409 ft | 172 kts | 306° |
| 2026-05-04 22:47 | 32.15453 | -110.98732 | 5951 ft | 204 kts | 305° |
| 2026-05-04 22:48 | 32.16457 | -110.99942 | 6729 ft | 211 kts | 311° |
| 2026-05-04 22:48 | 32.17571 | -111.01102 | 7444 ft | 216 kts | 313° |
| 2026-05-04 22:48 | 32.18687 | -111.02342 | 8123 ft | 223 kts | 309° |
| 2026-05-04 22:48 | 32.19806 | -111.03642 | 8845 ft | 228 kts | 309° |
| 2026-05-04 22:49 | 32.20951 | -111.05003 | 9414 ft | 236 kts | 304° |
| 2026-05-04 22:49 | 32.21771 | -111.06665 | 10030 ft | 235 kts | 287° |
| 2026-05-04 22:49 | 32.22347 | -111.08491 | 10627 ft | 242 kts | 282° |
| 2026-05-04 22:49 | 32.22847 | -111.10430 | 11170 ft | 252 kts | 281° |
| 2026-05-04 22:50 | 32.23265 | -111.12478 | 11740 ft | 262 kts | 276° |
| 2026-05-04 22:50 | 32.23600 | -111.14656 | 12207 ft | 277 kts | 276° |
| 2026-05-04 22:50 | 32.23938 | -111.16960 | 12635 ft | 293 kts | 276° |
| 2026-05-04 22:50 | 32.24296 | -111.19402 | 13068 ft | 309 kts | 276° |
| 2026-05-04 22:51 | 32.24663 | -111.21917 | 13503 ft | 318 kts | 276° |
| 2026-05-04 22:51 | 32.25039 | -111.24491 | 13969 ft | 318 kts | 276° |
| 2026-05-04 22:51 | 32.25414 | -111.27075 | 14431 ft | 319 kts | 276° |
| 2026-05-04 22:51 | 32.25790 | -111.29669 | 14896 ft | 320 kts | 276° |
| 2026-05-04 22:52 | 32.26165 | -111.32262 | 15367 ft | 321 kts | 276° |
| 2026-05-04 22:52 | 32.26541 | -111.34861 | 15855 ft | 321 kts | 276° |
| 2026-05-04 22:52 | 32.26917 | -111.37467 | 16362 ft | 322 kts | 276° |
| 2026-05-04 22:52 | 32.27293 | -111.40080 | 16846 ft | 323 kts | 276° |
| 2026-05-04 22:53 | 32.27800 | -111.42680 | 17352 ft | 328 kts | 285° |
| 2026-05-04 22:53 | 32.28679 | -111.45181 | 17865 ft | 332 kts | 291° |
| 2026-05-04 22:53 | 32.29704 | -111.47624 | 18361 ft | 333 kts | 293° |
| 2026-05-04 22:53 | 32.30785 | -111.50044 | 18810 ft | 334 kts | 294° |
| 2026-05-04 22:54 | 32.31894 | -111.52469 | 19274 ft | 335 kts | 294° |
| 2026-05-04 22:54 | 32.33093 | -111.54841 | 19750 ft | 338 kts | 298° |
| 2026-05-04 22:54 | 32.34387 | -111.57179 | 20234 ft | 339 kts | 298° |
| 2026-05-04 22:54 | 32.35695 | -111.59511 | 20724 ft | 340 kts | 298° |
| 2026-05-04 22:55 | 32.37010 | -111.61845 | 21220 ft | 341 kts | 298° |
| 2026-05-04 22:55 | 32.38312 | -111.64156 | 21715 ft | 342 kts | 298° |
| 2026-05-04 22:55 | 32.39637 | -111.66510 | 22222 ft | 344 kts | 298° |
| 2026-05-04 22:55 | 32.40964 | -111.68872 | 22739 ft | 346 kts | 298° |
| 2026-05-04 22:56 | 32.42304 | -111.71255 | 23277 ft | 347 kts | 298° |
| 2026-05-04 22:56 | 32.43642 | -111.73639 | 23748 ft | 348 kts | 298° |
| 2026-05-04 22:56 | 32.44983 | -111.76028 | 24199 ft | 349 kts | 298° |
| 2026-05-04 22:56 | 32.46328 | -111.78426 | 24645 ft | 350 kts | 297° |
| 2026-05-04 22:57 | 32.47674 | -111.80828 | 25109 ft | 350 kts | 297° |
| 2026-05-04 22:57 | 32.49025 | -111.83242 | 25582 ft | 352 kts | 297° |
| 2026-05-04 22:57 | 32.50376 | -111.85657 | 26062 ft | 353 kts | 297° |
| 2026-05-04 22:57 | 32.51738 | -111.88093 | 26571 ft | 354 kts | 297° |
| 2026-05-04 22:58 | 32.53103 | -111.90532 | 27075 ft | 355 kts | 297° |
| 2026-05-04 22:58 | 32.54468 | -111.92978 | 27589 ft | 356 kts | 297° |
| 2026-05-04 22:58 | 32.55833 | -111.95423 | 28102 ft | 357 kts | 297° |
| 2026-05-04 22:58 | 32.57202 | -111.97877 | 28616 ft | 357 kts | 297° |
| 2026-05-04 22:59 | 32.58569 | -112.00330 | 29135 ft | 356 kts | 296° |
| 2026-05-04 22:59 | 32.59934 | -112.02779 | 29672 ft | 355 kts | 296° |
| 2026-05-04 22:59 | 32.61292 | -112.05218 | 30171 ft | 354 kts | 296° |
| 2026-05-04 22:59 | 32.62649 | -112.07657 | 30635 ft | 352 kts | 296° |
| 2026-05-04 23:00 | 32.63994 | -112.10079 | 31104 ft | 351 kts | 296° |
| 2026-05-04 23:00 | 32.65317 | -112.12456 | 31572 ft | 349 kts | 296° |
| 2026-05-04 23:00 | 32.66652 | -112.14867 | 31806 ft | 353 kts | 296° |
| 2026-05-04 23:00 | 32.68019 | -112.17333 | 31884 ft | 361 kts | 296° |
| 2026-05-04 23:01 | 32.70819 | -112.22376 | 31939 ft | 366 kts | 296° |
| 2026-05-04 23:01 | 32.73614 | -112.27425 | 31921 ft | 366 kts | 296° |
| 2026-05-04 23:02 | 32.76413 | -112.32490 | 31941 ft | 370 kts | 296° |
| 2026-05-04 23:02 | 32.79300 | -112.37721 | 31946 ft | 387 kts | 296° |
| 2026-05-04 23:03 | 32.82310 | -112.43179 | 31960 ft | 402 kts | 296° |
| 2026-05-04 23:03 | 32.85418 | -112.48819 | 31936 ft | 406 kts | 296° |
| 2026-05-04 23:04 | 32.86951 | -112.51586 | 31920 ft | 394 kts | 296° |
| 2026-05-04 23:04 | 32.88433 | -112.54319 | 31956 ft | 399 kts | 296° |
| 2026-05-04 23:04 | 32.91486 | -112.59873 | 31950 ft | 401 kts | 296° |
| 2026-05-04 23:05 | 32.94541 | -112.65430 | 31944 ft | 401 kts | 296° |
| 2026-05-04 23:05 | 32.97899 | -112.70800 | 31949 ft | 406 kts | 301° |
| 2026-05-04 23:06 | 33.01424 | -112.76070 | 31941 ft | 407 kts | 301° |
| 2026-05-04 23:06 | 33.04964 | -112.81348 | 31945 ft | 407 kts | 301° |
| 2026-05-04 23:07 | 33.08503 | -112.86633 | 31924 ft | 408 kts | 301° |
| 2026-05-04 23:07 | 33.12042 | -112.91927 | 31929 ft | 408 kts | 300° |
| 2026-05-04 23:08 | 33.15581 | -112.97230 | 31915 ft | 408 kts | 300° |
| 2026-05-04 23:08 | 33.19114 | -113.02532 | 31924 ft | 409 kts | 301° |
| 2026-05-04 23:09 | 33.22657 | -113.07856 | 31917 ft | 409 kts | 301° |
| 2026-05-04 23:09 | 33.26171 | -113.13145 | 31913 ft | 409 kts | 300° |
| 2026-05-04 23:10 | 33.29740 | -113.18524 | 31908 ft | 410 kts | 300° |
| 2026-05-04 23:10 | 33.33259 | -113.23836 | 31909 ft | 411 kts | 300° |
| 2026-05-04 23:11 | 33.36813 | -113.29207 | 31919 ft | 411 kts | 300° |
| 2026-05-04 23:11 | 33.40364 | -113.34583 | 31958 ft | 412 kts | 300° |
| 2026-05-04 23:12 | 33.43918 | -113.39971 | 31987 ft | 412 kts | 300° |
| 2026-05-04 23:12 | 33.47471 | -113.45364 | 32016 ft | 412 kts | 300° |
| 2026-05-04 23:13 | 33.51024 | -113.50767 | 32038 ft | 413 kts | 300° |
| 2026-05-04 23:13 | 33.54571 | -113.56169 | 32050 ft | 413 kts | 300° |
| 2026-05-04 23:14 | 33.58101 | -113.61551 | 32044 ft | 413 kts | 300° |
| 2026-05-04 23:14 | 33.61654 | -113.66978 | 32055 ft | 413 kts | 300° |
| 2026-05-04 23:15 | 33.65211 | -113.72418 | 32021 ft | 414 kts | 300° |
| 2026-05-04 23:15 | 33.68760 | -113.77856 | 31996 ft | 414 kts | 299° |
| 2026-05-04 23:16 | 33.72319 | -113.83315 | 31961 ft | 414 kts | 299° |
| 2026-05-04 23:16 | 33.75877 | -113.88782 | 31924 ft | 416 kts | 299° |
| 2026-05-04 23:17 | 33.79418 | -113.94231 | 31889 ft | 416 kts | 299° |
| 2026-05-04 23:17 | 33.82982 | -113.99724 | 31884 ft | 417 kts | 299° |
| 2026-05-04 23:18 | 33.86548 | -114.05227 | 31885 ft | 417 kts | 299° |
| 2026-05-04 23:18 | 33.89722 | -114.10950 | 31883 ft | 403 kts | 287° |
| 2026-05-04 23:19 | 33.91474 | -114.17277 | 31878 ft | 394 kts | 277° |
| 2026-05-04 23:19 | 33.92623 | -114.23732 | 31867 ft | 394 kts | 276° |
| 2026-05-04 23:20 | 33.93717 | -114.30188 | 31876 ft | 394 kts | 276° |
| 2026-05-04 23:20 | 33.94809 | -114.36654 | 31869 ft | 394 kts | 276° |
| 2026-05-04 23:21 | 33.95890 | -114.43081 | 31873 ft | 394 kts | 276° |
| 2026-05-04 23:21 | 33.96976 | -114.49553 | 31864 ft | 394 kts | 275° |
| 2026-05-04 23:22 | 33.98059 | -114.56034 | 31861 ft | 394 kts | 275° |
| 2026-05-04 23:22 | 33.99138 | -114.62510 | 31863 ft | 394 kts | 275° |
| 2026-05-04 23:23 | 34.00215 | -114.68996 | 31871 ft | 395 kts | 275° |
| 2026-05-04 23:23 | 34.01290 | -114.75487 | 31866 ft | 395 kts | 275° |
| 2026-05-04 23:24 | 34.02359 | -114.81974 | 31864 ft | 394 kts | 275° |
| 2026-05-04 23:24 | 34.03420 | -114.88423 | 31867 ft | 395 kts | 275° |
| 2026-05-04 23:25 | 34.04484 | -114.94921 | 31862 ft | 395 kts | 274° |
| 2026-05-04 23:25 | 34.05371 | -115.00362 | 31863 ft | 395 kts | 274° |
| 2026-05-04 23:26 | 34.06429 | -115.06856 | 31866 ft | 403 kts | 270° |
| 2026-05-04 23:26 | 34.07517 | -115.13532 | 31859 ft | 404 kts | 270° |
| 2026-05-04 23:27 | 34.08593 | -115.20173 | 31854 ft | 404 kts | 269° |
| 2026-05-04 23:27 | 34.09667 | -115.26809 | 31866 ft | 402 kts | 270° |
| 2026-05-04 23:28 | 34.10732 | -115.33434 | 31855 ft | 401 kts | 269° |
| 2026-05-04 23:28 | 34.11786 | -115.40001 | 31868 ft | 401 kts | 269° |
| 2026-05-04 23:29 | 34.12839 | -115.46593 | 31854 ft | 399 kts | 269° |
| 2026-05-04 23:29 | 34.13890 | -115.53191 | 31877 ft | 400 kts | 269° |
| 2026-05-04 23:30 | 34.14934 | -115.59772 | 31831 ft | 398 kts | 269° |
| 2026-05-04 23:30 | 34.15448 | -115.62955 | 31838 ft | 373 kts | 268° |
| 2026-05-04 23:30 | 34.15796 | -115.65926 | 31840 ft | 345 kts | 262° |
| 2026-05-04 23:31 | 34.15917 | -115.71739 | 31889 ft | 349 kts | 259° |
| 2026-05-04 23:31 | 34.15560 | -115.77485 | 31878 ft | 341 kts | 254° |
| 2026-05-04 23:32 | 34.15019 | -115.83165 | 31888 ft | 340 kts | 254° |
| 2026-05-04 23:32 | 34.14471 | -115.88796 | 31886 ft | 340 kts | 254° |
| 2026-05-04 23:33 | 34.13917 | -115.94463 | 31894 ft | 339 kts | 253° |
| 2026-05-04 23:33 | 34.13365 | -116.00117 | 31891 ft | 339 kts | 253° |
| 2026-05-04 23:34 | 34.12813 | -116.05762 | 31900 ft | 338 kts | 253° |
| 2026-05-04 23:34 | 34.12258 | -116.11400 | 31893 ft | 338 kts | 253° |
| 2026-05-04 23:35 | 34.11703 | -116.17030 | 31909 ft | 337 kts | 253° |
| 2026-05-04 23:35 | 34.11148 | -116.22622 | 31845 ft | 337 kts | 253° |
| 2026-05-04 23:36 | 34.10876 | -116.25429 | 31688 ft | 337 kts | 255° |
| 2026-05-04 23:36 | 34.10603 | -116.28227 | 31441 ft | 335 kts | 253° |
| 2026-05-04 23:36 | 34.10304 | -116.31020 | 31222 ft | 336 kts | 253° |
| 2026-05-04 23:36 | 34.10007 | -116.33828 | 30946 ft | 340 kts | 253° |
| 2026-05-04 23:37 | 34.09705 | -116.36629 | 30699 ft | 336 kts | 253° |
| 2026-05-04 23:37 | 34.09407 | -116.39428 | 30474 ft | 337 kts | 254° |
| 2026-05-04 23:37 | 34.09106 | -116.42229 | 30245 ft | 338 kts | 254° |
| 2026-05-04 23:37 | 34.08803 | -116.45053 | 29785 ft | 339 kts | 255° |
| 2026-05-04 23:38 | 34.08503 | -116.47849 | 29249 ft | 341 kts | 255° |
| 2026-05-04 23:38 | 34.08198 | -116.50680 | 28714 ft | 339 kts | 255° |
| 2026-05-04 23:38 | 34.07893 | -116.53501 | 28202 ft | 338 kts | 255° |
| 2026-05-04 23:38 | 34.07555 | -116.56296 | 27679 ft | 338 kts | 256° |
| 2026-05-04 23:39 | 34.07288 | -116.59114 | 27164 ft | 338 kts | 257° |
| 2026-05-04 23:39 | 34.07025 | -116.61933 | 26647 ft | 339 kts | 257° |
| 2026-05-04 23:39 | 34.06766 | -116.64754 | 26129 ft | 337 kts | 257° |
| 2026-05-04 23:39 | 34.06505 | -116.67554 | 25661 ft | 336 kts | 258° |
| 2026-05-04 23:40 | 34.06249 | -116.70361 | 25189 ft | 337 kts | 258° |
| 2026-05-04 23:40 | 34.05985 | -116.73175 | 24765 ft | 337 kts | 258° |
| 2026-05-04 23:40 | 34.05722 | -116.75979 | 24290 ft | 337 kts | 259° |
| 2026-05-04 23:40 | 34.05462 | -116.78786 | 23881 ft | 337 kts | 259° |
| 2026-05-04 23:41 | 34.05198 | -116.81607 | 23431 ft | 339 kts | 259° |
| 2026-05-04 23:41 | 34.04943 | -116.84423 | 22941 ft | 338 kts | 261° |
| 2026-05-04 23:41 | 34.04703 | -116.87229 | 22424 ft | 335 kts | 258° |
| 2026-05-04 23:41 | 34.04357 | -116.90023 | 21946 ft | 335 kts | 258° |
| 2026-05-04 23:42 | 34.04003 | -116.92801 | 21476 ft | 335 kts | 258° |
| 2026-05-04 23:42 | 34.03646 | -116.95579 | 20990 ft | 335 kts | 258° |
| 2026-05-04 23:42 | 34.03278 | -116.98351 | 20533 ft | 334 kts | 257° |
| 2026-05-04 23:42 | 34.02898 | -117.01117 | 20071 ft | 336 kts | 259° |
| 2026-05-04 23:43 | 34.02574 | -117.03861 | 19615 ft | 335 kts | 259° |
| 2026-05-04 23:43 | 34.02245 | -117.06640 | 19157 ft | 334 kts | 259° |
| 2026-05-04 23:43 | 34.01918 | -117.09417 | 18626 ft | 335 kts | 259° |
| 2026-05-04 23:43 | 34.01586 | -117.12218 | 17882 ft | 337 kts | 259° |
| 2026-05-04 23:44 | 34.01255 | -117.15005 | 17109 ft | 335 kts | 259° |
| 2026-05-04 23:44 | 34.00925 | -117.17787 | 16357 ft | 334 kts | 259° |
| 2026-05-04 23:44 | 34.00596 | -117.20552 | 15606 ft | 333 kts | 259° |
| 2026-05-04 23:44 | 34.00265 | -117.23315 | 14893 ft | 332 kts | 259° |
| 2026-05-04 23:45 | 33.99937 | -117.26061 | 14205 ft | 330 kts | 259° |
| 2026-05-04 23:45 | 33.99628 | -117.28756 | 14075 ft | 320 kts | 260° |
| 2026-05-04 23:45 | 33.99322 | -117.31381 | 14028 ft | 321 kts | 259° |
| 2026-05-04 23:45 | 33.99007 | -117.34061 | 14002 ft | 324 kts | 259° |
| 2026-05-04 23:46 | 33.98692 | -117.36746 | 13981 ft | 324 kts | 260° |
| 2026-05-04 23:46 | 33.98376 | -117.39443 | 13705 ft | 325 kts | 259° |
| 2026-05-04 23:46 | 33.98058 | -117.42131 | 13339 ft | 322 kts | 260° |
| 2026-05-04 23:46 | 33.97744 | -117.44794 | 12949 ft | 320 kts | 260° |
| 2026-05-04 23:47 | 33.97433 | -117.47435 | 12563 ft | 317 kts | 260° |
| 2026-05-04 23:47 | 33.96993 | -117.50020 | 12172 ft | 314 kts | 248° |
| 2026-05-04 23:47 | 33.96059 | -117.52382 | 12047 ft | 311 kts | 242° |
| 2026-05-04 23:47 | 33.95046 | -117.54656 | 12023 ft | 313 kts | 241° |
| 2026-05-04 23:48 | 33.93891 | -117.56859 | 11992 ft | 313 kts | 228° |
| 2026-05-04 23:48 | 33.92295 | -117.58653 | 11987 ft | 313 kts | 229° |
| 2026-05-04 23:48 | 33.91278 | -117.60941 | 11998 ft | 313 kts | 255° |
| 2026-05-04 23:48 | 33.91245 | -117.63554 | 12015 ft | 318 kts | 281° |
| 2026-05-04 23:49 | 33.92112 | -117.66011 | 12020 ft | 320 kts | 294° |
| 2026-05-04 23:49 | 33.93112 | -117.68376 | 12003 ft | 321 kts | 291° |
| 2026-05-04 23:49 | 33.93924 | -117.70895 | 12029 ft | 318 kts | 284° |
| 2026-05-04 23:49 | 33.94277 | -117.73507 | 12009 ft | 315 kts | 271° |
| 2026-05-04 23:50 | 33.94171 | -117.76102 | 12016 ft | 315 kts | 264° |
| 2026-05-04 23:50 | 33.94013 | -117.78726 | 12005 ft | 314 kts | 262° |
| 2026-05-04 23:50 | 33.93709 | -117.81327 | 11909 ft | 316 kts | 261° |
| 2026-05-04 23:50 | 33.93449 | -117.83943 | 11537 ft | 313 kts | 262° |
| 2026-05-04 23:51 | 33.93186 | -117.86532 | 11166 ft | 305 kts | 262° |
| 2026-05-04 23:51 | 33.92950 | -117.89034 | 10789 ft | 297 kts | 263° |
| 2026-05-04 23:51 | 33.92744 | -117.91234 | 10440 ft | 290 kts | 263° |
| 2026-05-04 23:51 | 33.92695 | -117.93636 | 10072 ft | 285 kts | 274° |
| 2026-05-04 23:52 | 33.93046 | -117.95928 | 9688 ft | 280 kts | 283° |
| 2026-05-04 23:52 | 33.93646 | -117.98169 | 9268 ft | 276 kts | 288° |
| 2026-05-04 23:52 | 33.94380 | -118.00300 | 8876 ft | 272 kts | 295° |
| 2026-05-04 23:52 | 33.95328 | -118.02259 | 8484 ft | 269 kts | 298° |
| 2026-05-04 23:53 | 33.96276 | -118.04154 | 8110 ft | 266 kts | 298° |
| 2026-05-04 23:53 | 33.97181 | -118.05968 | 7743 ft | 257 kts | 298° |
| 2026-05-04 23:53 | 33.98086 | -118.07783 | 7345 ft | 248 kts | 298° |
| 2026-05-04 23:53 | 33.98958 | -118.09536 | 6949 ft | 240 kts | 298° |
| 2026-05-04 23:54 | 33.99806 | -118.11238 | 6567 ft | 234 kts | 299° |
| 2026-05-04 23:54 | 34.00630 | -118.12907 | 6167 ft | 228 kts | 298° |
| 2026-05-04 23:54 | 34.01501 | -118.14513 | 5471 ft | 236 kts | 309° |
| 2026-05-04 23:54 | 34.02604 | -118.16025 | 4512 ft | 247 kts | 301° |
| 2026-05-04 23:55 | 34.03163 | -118.18048 | 3172 ft | 268 kts | 271° |
| 2026-05-04 23:55 | 34.02975 | -118.20238 | 2836 ft | 250 kts | 258° |
| 2026-05-04 23:55 | 34.01393 | -118.23363 | 2833 ft | 206 kts | 220° |
| 2026-05-04 23:56 | 34.00247 | -118.24389 | 2907 ft | 201 kts | 216° |
| 2026-05-04 23:56 | 33.99150 | -118.25262 | 2961 ft | 177 kts | 215° |
| 2026-05-04 23:56 | 33.98140 | -118.26004 | 2852 ft | 165 kts | 208° |
| 2026-05-04 23:56 | 33.97032 | -118.26096 | 2710 ft | 156 kts | 176° |
| 2026-05-04 23:57 | 33.96045 | -118.26327 | 2423 ft | 144 kts | 215° |
| 2026-05-04 23:57 | 33.95432 | -118.27203 | 1986 ft | 139 kts | 240° |
| 2026-05-04 23:57 | 33.94989 | -118.28210 | 1665 ft | 131 kts | 249° |
| 2026-05-04 23:57 | 33.94731 | -118.29211 | 1378 ft | 123 kts | 257° |
| 2026-05-04 23:58 | 33.94558 | -118.30207 | 1135 ft | 119 kts | 257° |
| 2026-05-04 23:58 | 33.94429 | -118.31168 | 953 ft | 114 kts | 259° |
| 2026-05-04 23:58 | 33.94319 | -118.32095 | 853 ft | 110 kts | 264° |
| 2026-05-04 23:58 | 33.94243 | -118.33032 | 785 ft | 109 kts | 264° |
| 2026-05-04 23:59 | 33.94164 | -118.33930 | 776 ft | 109 kts | 262° |
| 2026-05-04 23:59 | 33.94058 | -118.34855 | 726 ft | 118 kts | 262° |
| 2026-05-04 23:59 | 33.93955 | -118.35834 | 585 ft | 115 kts | 265° |
| 2026-05-04 23:59 | 33.93877 | -118.36735 | 388 ft | 108 kts | 265° |
| 2026-05-05 00:00 | 33.93791 | -118.37619 | 237 ft | 102 kts | 265° |
| 2026-05-05 00:00 | 33.93764 | -118.37899 | 214 ft | 105 kts | 265° |
| 2026-05-05 00:00 | 33.93641 | -118.39228 | 106 ft | 81 kts | 262° |
| 2026-05-05 00:00 | 33.93602 | -118.39633 | 108 ft | 28 kts | 268° |
| 2026-05-05 00:01 | 33.93622 | -118.39855 | 109 ft | 26 kts | 287° |
| 2026-05-05 00:01 | 33.93664 | -118.40051 | 105 ft | 24 kts | 269° |
| 2026-05-05 00:01 | 33.93646 | -118.40229 | 105 ft | 18 kts | 262° |
| 2026-05-05 00:01 | 33.93668 | -118.40371 | 106 ft | 12 kts | 306° |
| 2026-05-05 00:02 | 33.93736 | -118.40420 | 107 ft | 13 kts | 347° |
| 2026-05-05 00:02 | 33.93833 | -118.40400 | 101 ft | 18 kts | 58° |
| 2026-05-05 00:02 | 33.93851 | -118.40257 | 102 ft | 18 kts | 82° |
| 2026-05-05 00:02 | 33.93868 | -118.40100 | 101 ft | 20 kts | 84° |
| 2026-05-05 00:03 | 33.93886 | -118.39921 | 102 ft | 23 kts | 83° |
| 2026-05-05 00:03 | 33.93918 | -118.39816 | 98 ft | 7 kts | 27° |
| 2026-05-05 00:03 | 33.93989 | -118.39820 | 95 ft | 6 kts | 0° |
| 2026-05-05 00:03 | 33.94019 | -118.39791 | 94 ft | 3 kts | 60° |
| 2026-05-05 00:04 | 33.94030 | -118.39769 | 96 ft | 0 kts | 58° |
| 2026-05-05 00:04 | 33.94034 | -118.39761 | 94 ft | 1 kts | 58° |
| 2026-05-05 00:04 | 33.94035 | -118.39759 | 94 ft | 0 kts | 58° |